Current Weather

Orlando Intl

Orlando, Florida (KMCO)

Report from: Monday, June 27, 2022 7:53 AM EDT
Current time: Monday, June 27, 2022 8:35 AM EDT

Nearby weather
Weather history
Weather forecast

Temperature25.6°C (78.1°F)
Dew point23.3°C (73.9°F)
Winds 4 kts (2.1 m/s, 4.6 mph) Southeast (140°)
Visibility10 mi. (16.1 km)
Clouds Few clouds 3,000 ft. (914 m)
Few clouds 25,000 ft. (7,620 m)
Altimeter30.03 in.Hg (1017 mB)
Precip last 24 hours0.22 in. (6 mm)
Relative humidity87 %
Density altitude1,486 ft. (453 m)
Sea-level pressure101.7 kPa (1017 mB, 30.02 in.Hg)
Max temp last 6 hours25.6°C (78.1°F)
Min temp last 6 hours23.3°C (73.9°F)
Remarks Automated weather observing station with precipitation discriminator
Pressure rising more quickly
Flight conditions Visual Meteorological Conditions
Raw dataKMCO 271153Z 14004KT 10SM FEW030 FEW250 26/23 A3003 RMK AO2 SLP167 70022 T02560233 10256 20233 53010
An error has occurred. This application may no longer respond until reloaded. Reload 🗙